createdAt,value
2022-10-20T00:07:48.956Z,102483.00
2022-10-20T00:18:12.689Z,102475.00
2022-10-20T00:28:43.454Z,102454.00
2022-10-20T00:39:11.715Z,102468.00
2022-10-20T00:49:35.345Z,102455.00
2022-10-20T00:59:58.570Z,102436.00
2022-10-20T01:10:20.517Z,102428.00
2022-10-20T01:21:13.086Z,102426.00
2022-10-20T01:31:44.915Z,102411.00
2022-10-20T01:42:10.722Z,102397.00
2022-10-20T01:52:35.711Z,102389.00
2022-10-20T02:03:16.164Z,102376.00
2022-10-20T02:13:57.976Z,102345.00
2022-10-20T02:24:29.875Z,102334.00
2022-10-20T02:34:53.015Z,102338.00
2022-10-20T02:45:14.494Z,102335.00
2022-10-20T03:07:22.817Z,102317.00
2022-10-20T03:17:55.413Z,102310.00
2022-10-20T03:28:18.588Z,102288.00
2022-10-20T03:38:42.261Z,102284.00
2022-10-20T03:49:05.183Z,102291.00
2022-10-20T03:59:29.557Z,102287.00
2022-10-20T04:09:53.526Z,102280.00
2022-10-20T04:20:15.017Z,102277.00
2022-10-20T04:30:39.581Z,102257.00
2022-10-20T04:41:04.699Z,102262.00
2022-10-20T04:51:27.242Z,102240.00
2022-10-20T05:01:48.551Z,102217.00
2022-10-20T05:12:11.547Z,102217.00
2022-10-20T05:22:33.685Z,102217.00
2022-10-20T05:32:57.053Z,102224.00
2022-10-20T05:43:18.131Z,102216.00
2022-10-20T05:53:41.087Z,102222.00
2022-10-20T06:04:04.905Z,102225.00
2022-10-20T06:14:28.235Z,102232.00
2022-10-20T06:24:51.981Z,102226.00
2022-10-20T06:35:15.064Z,102218.00
2022-10-20T06:45:36.516Z,102229.00
2022-10-20T06:56:02.872Z,102214.00
2022-10-20T07:06:26.765Z,102212.00
2022-10-20T07:16:50.631Z,102210.00
2022-10-20T07:27:12.115Z,102211.00
2022-10-20T07:37:35.162Z,102198.00
2022-10-20T07:47:57.118Z,102191.00
2022-10-20T07:58:20.758Z,102204.00
2022-10-20T08:08:42.530Z,102187.00
2022-10-20T08:19:09.937Z,102174.00
2022-10-20T08:29:33.313Z,102159.00
2022-10-20T08:39:58.058Z,102160.00
2022-10-20T08:50:21.562Z,102159.00
2022-10-20T09:00:46.189Z,102149.00
2022-10-20T09:11:12.165Z,102133.00
2022-10-20T09:21:45.223Z,102135.00
2022-10-20T09:32:45.029Z,102111.00
2022-10-20T09:43:09.862Z,102099.00
2022-10-20T09:53:35.551Z,102083.00
2022-10-20T10:04:04.975Z,102056.00
2022-10-20T10:14:33.704Z,102056.00
2022-10-20T10:24:57.795Z,102031.00
2022-10-20T10:35:25.607Z,102012.00
2022-10-20T10:45:53.438Z,101998.00
2022-10-20T10:56:31.239Z,101981.00
2022-10-20T11:07:02.289Z,101966.00
2022-10-20T11:17:40.094Z,101936.00
2022-10-20T11:28:03.344Z,101921.00
2022-10-20T11:38:32.266Z,101910.00
2022-10-20T11:49:01.728Z,101905.00
2022-10-20T11:59:49.509Z,101897.00
2022-10-20T12:10:26.057Z,101900.00
2022-10-20T12:20:55.629Z,101877.00
2022-10-20T12:31:25.789Z,101877.00
2022-10-20T12:41:57.524Z,101834.00
2022-10-20T12:52:24.248Z,101836.00
2022-10-20T13:02:56.180Z,101830.00
2022-10-20T13:13:51.859Z,101819.00
2022-10-20T13:24:17.375Z,101797.00
2022-10-20T13:34:49.250Z,101801.00
2022-10-20T13:45:19.989Z,101788.00
2022-10-20T13:55:58.572Z,101762.00
2022-10-20T14:06:31.113Z,101769.00
2022-10-20T14:16:58.548Z,101756.00
2022-10-20T14:27:22.999Z,101773.00
2022-10-20T14:37:59.963Z,101767.00
2022-10-20T14:48:25.367Z,101771.00
2022-10-20T14:58:58.974Z,101759.00
2022-10-20T15:09:29.611Z,101727.00
2022-10-20T15:19:52.338Z,101725.00
2022-10-20T15:30:23.536Z,101721.00
2022-10-20T15:40:47.427Z,101727.00
2022-10-20T15:51:15.799Z,101690.00
2022-10-20T16:01:38.759Z,101682.00
2022-10-20T16:12:00.489Z,101646.00
2022-10-20T16:22:23.319Z,101644.00
2022-10-20T16:32:44.638Z,101666.00
2022-10-20T16:43:07.365Z,101683.00
2022-10-20T16:53:29.024Z,101661.00
2022-10-20T17:03:53.662Z,101668.00
2022-10-20T17:14:14.941Z,101643.00
2022-10-20T17:24:38.672Z,101622.00
2022-10-20T17:35:00.152Z,101603.00
2022-10-20T17:45:22.953Z,101595.00
2022-10-20T17:55:44.362Z,101586.00
2022-10-20T18:06:12.667Z,101590.00
2022-10-20T18:16:54.022Z,101589.00
2022-10-20T18:27:16.954Z,101578.00
2022-10-20T18:37:45.363Z,101529.00
2022-10-20T18:48:08.489Z,101511.00
2022-10-20T18:58:30.966Z,101527.00
2022-10-20T19:08:58.615Z,101510.00
2022-10-20T19:19:21.021Z,101499.00
2022-10-20T19:29:43.969Z,101489.00
2022-10-20T19:40:06.158Z,101496.00
2022-10-20T19:50:29.474Z,101479.00
2022-10-20T20:00:53.697Z,101479.00
2022-10-20T20:11:23.898Z,101474.00
2022-10-20T20:21:46.335Z,101457.00
2022-10-20T20:32:54.314Z,101443.00
2022-10-20T20:43:17.242Z,101448.00
2022-10-20T20:53:49.651Z,101443.00
2022-10-20T21:04:13.079Z,101444.00
2022-10-20T21:14:48.410Z,101440.00
2022-10-20T21:25:15.619Z,101427.00
2022-10-20T21:35:36.799Z,101418.00
2022-10-20T21:46:12.575Z,101429.00
2022-10-20T21:56:36.367Z,101427.00
2022-10-20T22:07:00.225Z,101436.00
2022-10-20T22:17:22.127Z,101411.00
2022-10-20T22:27:46.077Z,101404.00
2022-10-20T22:38:07.538Z,101411.00
2022-10-20T22:48:30.480Z,101393.00
2022-10-20T22:58:53.446Z,101413.00
2022-10-20T23:09:16.070Z,101381.00
2022-10-20T23:19:37.563Z,101385.00
2022-10-20T23:30:00.737Z,101356.00
2022-10-20T23:40:22.232Z,101356.00
2022-10-20T23:50:45.512Z,101329.00
